DTKA

UTC

Tabarka-Aïn Draham International Airport

Ras Rajel, Jendouba, Tunisia

TAF Report

TAF DTKA 010900Z 0110/0119 26006KT 9999 SCT020 PROB30 TEMPO 0110/0116 RA SCT020TCU FEW023CB

Issued

Oct 01 09:00 UTC

Valid From

Oct 01 10:00 UTC

Valid To

Oct 01 19:00 UTC

TAF Sections

  1. Oct 01 10:00 UTC - Oct 01 19:00 UTC

    TAF DTKA 010900Z 0110/0119 26006KT 9999 SCT020

    Wind

    260° at 6 KTS

    Visibility

    10,000+ M

    Clouds

    • Scattered at 2,000 ft AGL
  2. Oct 01 10:00 UTC - Oct 01 16:00 UTC

    PROB30 TEMPO 0110/0116 RA SCT020TCU FEW023CB

    Conditions

    • Rain

    Clouds

    • Scattered at 2,000 ft AGL
    • Few at 2,300 ft AGL